Time;durP1;ratioP1;P1;durP2;ratioP2;P2;SDS_P1;SDS_P2;PMS_P1;PMS_P2;Temp;Humidity;BMP_temperature;BMP_pressure;BME280_temperature;BME280_humidity;BME280_pressure;Samples;Min_cycle;Max_cycle;Signal;HPM_P1;HPM_P2
2023/05/14 00:01:40;;;;;;;92.33;37.23;;;;;;;15.36;66.88;95307.22;5014411;28;21000;-86
2023/05/14 00:04:06;;;;;;;7.43;6.77;;;;;;;15.35;66.66;95312.66;5014808;28;20484;-86
2023/05/14 00:06:33;;;;;;;4.83;4.30;;;;;;;15.48;66.85;95306.00;5014431;28;20450;-86
2023/05/14 00:09:01;;;;;;;9.50;6.27;;;;;;;15.62;67.47;95302.06;5015274;28;20442;-87
2023/05/14 00:11:28;;;;;;;9.27;6.20;;;;;;;15.67;67.87;95304.25;5014912;28;20572;-86
2023/05/14 00:13:55;;;;;;;10.03;5.97;;;;;;;15.77;67.94;95303.19;5015227;28;20523;-86
2023/05/14 00:16:22;;;;;;;6.93;4.50;;;;;;;15.84;68.83;95300.75;5015130;28;20483;-87
2023/05/14 00:18:48;;;;;;;5.23;4.03;;;;;;;15.90;66.23;95297.53;5014627;28;20508;-86
2023/05/14 00:21:16;;;;;;;5.83;4.07;;;;;;;15.96;66.91;95294.25;5014601;28;20451;-87
2023/05/14 00:23:42;;;;;;;6.30;5.20;;;;;;;15.93;66.61;95285.78;5014600;28;20496;-87
2023/05/14 00:26:10;;;;;;;4.60;4.13;;;;;;;15.92;65.75;95295.56;5014318;28;20451;-87
2023/05/14 00:28:37;;;;;;;4.50;4.10;;;;;;;15.88;66.48;95288.88;5013949;28;20491;-87
2023/05/14 00:31:04;;;;;;;4.93;4.20;;;;;;;15.63;65.95;95276.44;5013474;28;20601;-87
2023/05/14 00:33:31;;;;;;;6.40;4.33;;;;;;;15.73;67.62;95267.44;5027906;28;20453;-86
2023/05/14 00:35:58;;;;;;;5.10;4.60;;;;;;;15.79;67.05;95276.56;5013279;28;20506;-87
2023/05/14 00:38:27;;;;;;;4.80;4.30;;;;;;;15.82;67.91;95267.47;5013446;28;20840;-86
2023/05/14 00:40:54;;;;;;;4.87;4.00;;;;;;;15.82;66.05;95267.47;5013818;28;20428;-86
2023/05/14 00:43:24;;;;;;;5.55;4.57;;;;;;;15.87;66.54;95271.34;5013193;28;20562;-87
2023/05/14 00:45:52;;;;;;;4.40;3.77;;;;;;;15.73;65.65;95261.31;5014362;28;20217;-86
2023/05/14 00:48:20;;;;;;;4.90;4.33;;;;;;;15.75;65.96;95267.28;5014572;28;20442;-87
2023/05/14 00:50:47;;;;;;;5.80;5.30;;;;;;;15.80;66.06;95263.19;5013407;28;20447;-88
2023/05/14 00:53:14;;;;;;;5.87;4.20;;;;;;;15.80;66.49;95268.47;5013719;28;20493;-87
2023/05/14 00:55:42;;;;;;;6.37;4.73;;;;;;;15.86;65.93;95272.31;5013580;28;20494;-86
2023/05/14 00:58:11;;;;;;;3.80;3.50;;;;;;;15.89;66.28;95261.41;5013660;28;20438;-87
2023/05/14 01:00:40;;;;;;;6.20;4.20;;;;;;;15.91;65.72;95262.13;5014247;28;20448;-87
2023/05/14 01:03:08;;;;;;;4.90;4.27;;;;;;;15.91;66.65;95258.66;5014007;28;20480;-87
2023/05/14 01:05:43;;;;;;;4.50;3.90;;;;;;;15.84;64.83;95247.81;5013779;28;20862;-86
2023/05/14 01:08:22;;;;;;;5.70;4.20;;;;;;;15.76;65.54;95258.34;5014366;28;20790;-86
2023/05/14 01:10:52;;;;;;;155.63;66.10;;;;;;;15.66;65.47;95254.97;5013401;28;20450;-86
2023/05/14 01:13:26;;;;;;;10.70;7.27;;;;;;;15.59;65.54;95260.00;5014652;28;20437;-86
2023/05/14 01:15:57;;;;;;;6.00;4.60;;;;;;;15.54;65.75;95256.13;5013354;28;20439;-86
2023/05/14 01:18:25;;;;;;;5.90;3.73;;;;;;;15.39;66.39;95243.44;5013642;28;20479;-86
2023/05/14 01:20:52;;;;;;;4.83;4.33;;;;;;;15.54;66.70;95248.19;5013335;28;20454;-87
2023/05/14 01:23:20;;;;;;;5.10;4.60;;;;;;;15.57;66.25;95258.47;5013625;28;20528;-87
2023/05/14 01:25:47;;;;;;;6.33;4.63;;;;;;;15.56;67.07;95273.50;5013685;28;20488;-87
2023/05/14 01:32:04;;;;;;;4.17;3.80;;;;;;;15.40;65.70;95287.41;5013313;28;20494;-86
2023/05/14 01:34:32;;;;;;;3.53;3.27;;;;;;;15.34;66.57;95271.31;5013430;28;20436;-86
2023/05/14 01:37:01;;;;;;;5.73;3.60;;;;;;;15.32;67.60;95278.53;5013294;28;20440;-87
2023/05/14 01:39:31;;;;;;;4.40;3.50;;;;;;;15.18;67.26;95272.81;5014225;28;20451;-86
2023/05/14 01:41:58;;;;;;;5.47;3.83;;;;;;;15.10;66.15;95279.81;5013558;28;20539;-86
2023/05/14 01:44:26;;;;;;;6.60;3.53;;;;;;;15.14;66.57;95283.81;4995391;28;20966;-87
2023/05/14 01:46:53;;;;;;;3.80;3.50;;;;;;;15.06;66.37;95286.38;4995344;28;20502;-86
2023/05/14 01:49:19;;;;;;;3.87;3.50;;;;;;;15.07;66.96;95282.75;4995322;28;20486;-85
2023/05/14 01:51:46;;;;;;;3.97;3.57;;;;;;;15.03;67.93;95284.00;5014099;28;20495;-87
2023/05/14 01:54:13;;;;;;;4.53;4.13;;;;;;;15.10;68.49;95279.81;5013268;28;20918;-87
2023/05/14 01:56:41;;;;;;;20.87;4.10;;;;;;;15.13;69.11;95284.81;5013731;28;20429;-86
2023/05/14 01:59:09;;;;;;;6.37;3.57;;;;;;;15.15;68.75;95282.84;5013099;28;20915;-86
2023/05/14 02:01:36;;;;;;;4.00;3.70;;;;;;;15.06;69.24;95286.38;5014674;28;20467;-86
2023/05/14 02:04:02;;;;;;;4.33;3.43;;;;;;;15.02;68.38;95283.19;5016791;28;20500;-87
2023/05/14 02:06:30;;;;;;;4.40;4.00;;;;;;;14.96;69.41;95288.22;5017090;28;20437;-87
2023/05/14 02:08:57;;;;;;;4.03;3.63;;;;;;;15.02;71.48;95292.91;5017015;28;20507;-87
2023/05/14 02:11:23;;;;;;;4.37;3.97;;;;;;;15.03;72.61;95278.72;5016721;28;20510;-86
2023/05/14 02:17:20;;;;;;;7.17;4.07;;;;;;;14.86;72.65;95290.94;5017099;28;20434;-87
2023/05/14 02:19:47;;;;;;;4.50;4.10;;;;;;;14.69;72.59;95291.69;5016535;28;20443;-87
2023/05/14 02:22:14;;;;;;;4.30;3.90;;;;;;;14.62;72.66;95280.88;5016274;28;20457;-87
2023/05/14 02:24:41;;;;;;;5.03;3.90;;;;;;;14.65;73.98;95290.31;5016467;28;20428;-87
2023/05/14 02:50:41;;;;;;;4.00;3.70;;;;;;;14.32;73.92;95323.31;5015123;28;20501;-87
2023/05/14 02:53:08;;;;;;;4.60;4.30;;;;;;;14.34;74.31;95308.16;5015824;28;20484;-87
2023/05/14 02:55:36;;;;;;;4.93;3.97;;;;;;;14.43;75.08;95317.91;5016161;28;20514;-86
2023/05/14 02:58:02;;;;;;;4.30;4.00;;;;;;;14.42;73.32;95318.84;5016200;28;20438;-87
2023/05/14 03:00:29;;;;;;;5.70;3.87;;;;;;;14.43;73.47;95318.72;5015571;28;20506;-87
2023/05/14 03:02:56;;;;;;;4.57;4.03;;;;;;;14.51;75.39;95320.69;5015858;28;20981;-86
2023/05/14 03:05:23;;;;;;;6.23;4.80;;;;;;;14.51;73.62;95326.78;5015474;28;20495;-87
2023/05/14 03:07:52;;;;;;;5.10;4.60;;;;;;;14.43;73.02;95328.47;5015529;28;20443;-87
2023/05/14 03:10:19;;;;;;;6.00;3.80;;;;;;;14.36;73.94;95316.78;5015790;28;20444;-85
2023/05/14 03:12:46;;;;;;;4.17;3.87;;;;;;;14.32;74.92;95315.41;5014796;28;20628;-87
2023/05/14 03:15:13;;;;;;;4.60;4.20;;;;;;;14.31;74.49;95308.47;5015641;28;20534;-87
2023/05/14 03:17:39;;;;;;;5.43;3.90;;;;;;;14.17;73.63;95293.91;5015237;28;20436;-87
2023/05/14 03:20:07;;;;;;;4.83;4.30;;;;;;;14.23;75.04;95301.25;5015614;28;20494;-88
2023/05/14 03:22:34;;;;;;;4.83;4.27;;;;;;;14.09;74.57;95280.56;5015354;28;20513;-88
2023/05/14 03:25:02;;;;;;;5.63;4.20;;;;;;;14.06;76.40;95286.13;5015753;28;20431;-88
2023/05/14 03:27:29;;;;;;;5.57;4.03;;;;;;;14.11;76.70;95305.84;5015548;28;20810;-87
2023/05/14 03:29:56;;;;;;;4.50;3.90;;;;;;;14.11;77.80;95310.28;5014799;28;20571;-89
2023/05/14 03:32:22;;;;;;;8.13;4.10;;;;;;;14.10;79.68;95306.00;5015062;28;20529;-88
2023/05/14 03:34:49;;;;;;;4.20;3.83;;;;;;;14.05;79.98;95301.13;5015107;28;20501;-87
2023/05/14 03:37:16;;;;;;;5.03;4.33;;;;;;;14.04;80.92;95307.38;5015074;28;20501;-86
2023/05/14 03:39:43;;;;;;;5.07;4.73;;;;;;;13.89;81.58;95303.53;5015149;28;20464;-88
2023/05/14 03:42:11;;;;;;;4.90;4.50;;;;;;;13.97;83.32;95318.66;5014756;28;20545;-88
2023/05/14 03:44:38;;;;;;;3.97;3.67;;;;;;;13.96;82.66;95309.91;5013980;28;20442;-87
2023/05/14 03:47:05;;;;;;;4.60;4.20;;;;;;;13.94;82.63;95314.50;5014176;28;20861;-88
2023/05/14 03:49:32;;;;;;;4.17;3.83;;;;;;;13.90;81.65;95305.19;4995958;28;20852;-89
2023/05/14 03:51:59;;;;;;;6.47;3.90;;;;;;;13.80;80.06;95304.34;5014131;28;20582;-87
2023/05/14 03:54:26;;;;;;;4.53;4.13;;;;;;;13.69;79.87;95307.13;5013904;28;20792;-89
2023/05/14 03:56:52;;;;;;;4.50;4.10;;;;;;;13.69;79.31;95310.63;5014289;28;20846;-88
2023/05/14 03:59:20;;;;;;;4.63;4.23;;;;;;;13.69;77.28;95317.69;5015005;28;20880;-88
2023/05/14 04:01:47;;;;;;;5.00;4.50;;;;;;;13.66;78.68;95316.16;5014752;28;20914;-87
2023/05/14 04:04:14;;;;;;;4.17;3.87;;;;;;;13.71;77.70;95311.31;5014739;28;20968;-88
2023/05/14 04:06:41;;;;;;;4.30;3.90;;;;;;;13.72;78.37;95302.41;5015050;28;20428;-87
2023/05/14 04:09:09;;;;;;;4.70;4.30;;;;;;;13.91;79.60;95314.78;5014640;28;20446;-88
2023/05/14 04:11:36;;;;;;;4.40;4.00;;;;;;;14.02;80.12;95319.91;5014699;28;20976;-88
2023/05/14 04:14:03;;;;;;;4.23;3.93;;;;;;;14.15;80.94;95317.78;5012996;28;20503;-88
2023/05/14 04:16:31;;;;;;;7.23;4.20;;;;;;;14.24;81.05;95318.75;5015180;28;20865;-87
2023/05/14 04:18:58;;;;;;;4.80;4.20;;;;;;;14.24;80.72;95319.59;4996600;28;20455;-89
2023/05/14 04:21:24;;;;;;;4.13;3.73;;;;;;;14.16;78.74;95314.16;5014090;28;20458;-88
2023/05/14 04:23:51;;;;;;;4.00;3.70;;;;;;;14.15;78.70;95312.50;4996580;28;20980;-87
2023/05/14 04:26:18;;;;;;;4.43;4.00;;;;;;;14.12;79.45;95325.97;5014313;28;20440;-88
2023/05/14 04:28:45;;;;;;;6.63;4.47;;;;;;;14.65;90.89;95333.41;5014584;28;20446;-86
2023/05/14 04:31:12;;;;;;;6.10;3.43;;;;;;;15.43;84.36;95328.59;5014747;28;20498;-82
2023/05/14 04:33:40;;;;;;;3.57;3.27;;;;;;;16.33;75.97;95332.94;5014241;28;20865;-85
2023/05/14 04:36:07;;;;;;;3.83;3.53;;;;;;;17.07;71.50;95340.38;5014480;28;20442;-84
2023/05/14 04:38:34;;;;;;;4.57;4.17;;;;;;;17.56;69.84;95337.88;5014024;28;20435;-85
2023/05/14 04:41:01;;;;;;;4.27;3.90;;;;;;;18.03;68.51;95351.47;5014306;28;21008;-85
2023/05/14 04:43:27;;;;;;;8.20;4.10;;;;;;;17.97;62.77;95356.59;5013887;28;20869;-88
2023/05/14 04:45:54;;;;;;;4.00;3.27;;;;;;;17.68;63.36;95349.91;5014783;28;21063;-88
2023/05/14 04:48:22;;;;;;;7.00;3.87;;;;;;;16.65;64.49;95349.03;4997115;28;20446;-86
2023/05/14 04:50:50;;;;;;;4.00;3.60;;;;;;;16.00;65.97;95350.38;5013227;28;20517;-86
2023/05/14 04:53:17;;;;;;;4.20;3.90;;;;;;;15.47;70.43;95351.13;4979432;28;20550;-86
2023/05/14 04:55:44;;;;;;;4.33;3.93;;;;;;;15.01;72.14;95359.97;5014257;28;20453;-86
2023/05/14 04:58:11;;;;;;;4.60;4.20;;;;;;;14.54;75.47;95363.47;5012086;28;20432;-86
2023/05/14 05:00:38;;;;;;;4.60;4.20;;;;;;;13.99;77.24;95364.19;5014293;28;20463;-86
2023/05/14 05:03:05;;;;;;;6.53;3.97;;;;;;;13.94;79.69;95364.63;4995683;28;20830;-87
2023/05/14 05:05:32;;;;;;;5.33;4.50;;;;;;;13.60;80.94;95364.19;5013710;28;20446;-86
2023/05/14 05:08:00;;;;;;;6.40;3.67;;;;;;;13.48;82.19;95381.91;5013587;28;20845;-87
2023/05/14 05:10:27;;;;;;;8.63;4.63;;;;;;;13.35;84.47;95389.25;5013896;28;20436;-86
2023/05/14 05:12:54;;;;;;;5.43;4.97;;;;;;;13.26;85.24;95404.03;5011732;28;20823;-86
2023/05/14 05:15:20;;;;;;;4.60;4.27;;;;;;;13.19;88.37;95397.66;5013828;28;20800;-87
2023/05/14 05:17:48;;;;;;;5.83;4.60;;;;;;;13.05;89.42;95412.97;4995489;28;20451;-87
2023/05/14 05:20:15;;;;;;;6.90;5.10;;;;;;;13.00;91.02;95415.97;5013737;28;20447;-87
2023/05/14 05:22:41;;;;;;;6.53;5.03;;;;;;;12.89;91.91;95419.53;4995569;28;20445;-87
2023/05/14 05:25:11;;;;;;;5.00;4.47;;;;;;;12.77;89.23;95417.13;5013892;28;20489;-87
2023/05/14 05:27:38;;;;;;;4.13;3.77;;;;;;;12.84;89.44;95427.00;5013483;28;20788;-87
2023/05/14 05:30:06;;;;;;;5.60;4.07;;;;;;;12.99;90.83;95435.38;4995844;28;20471;-87
2023/05/14 05:32:37;;;;;;;7.17;5.00;;;;;;;13.09;92.90;95427.53;5014415;28;20473;-87
2023/05/14 05:35:04;;;;;;;5.83;5.10;;;;;;;13.23;93.93;95433.31;5013841;28;20451;-87
2023/05/14 05:37:33;;;;;;;7.23;6.50;;;;;;;13.34;93.43;95435.03;5019768;28;20449;-87
2023/05/14 05:40:00;;;;;;;5.80;5.00;;;;;;;13.43;93.72;95438.66;5020386;28;20465;-86
2023/05/14 05:42:28;;;;;;;19.27;17.20;;;;;;;13.44;93.42;95440.31;5020211;28;20917;-87
2023/05/14 05:44:55;;;;;;;18.50;14.63;;;;;;;13.45;92.07;95440.19;5020208;28;20457;-88
2023/05/14 05:47:22;;;;;;;22.03;13.27;;;;;;;13.49;92.43;95432.84;5020738;28;20437;-87
2023/05/14 05:49:49;;;;;;;10.67;9.53;;;;;;;13.55;93.10;95438.41;4991153;28;20833;-87
2023/05/14 05:52:16;;;;;;;7.63;6.00;;;;;;;13.63;92.37;95441.22;5025924;28;20453;-87
2023/05/14 05:54:43;;;;;;;15.10;6.70;;;;;;;13.64;94.51;95445.53;5017613;28;20450;-87
2023/05/14 05:57:10;;;;;;;10.00;6.17;;;;;;;13.70;95.96;95452.06;5017499;28;20423;-87
2023/05/14 05:59:38;;;;;;;7.43;6.70;;;;;;;13.71;96.27;95440.53;5017753;28;20509;-87
2023/05/14 06:02:05;;;;;;;10.30;5.97;;;;;;;13.69;95.05;95436.38;4999001;28;20446;-87
2023/05/14 06:04:32;;;;;;;7.73;6.93;;;;;;;13.69;94.87;95437.19;4983128;28;20536;-87
2023/05/14 06:06:58;;;;;;;5.73;5.27;;;;;;;13.50;94.26;95443.25;4999013;28;20450;-87
2023/05/14 06:09:25;;;;;;;8.30;6.17;;;;;;;13.33;95.45;95430.72;5016939;28;20503;-87
2023/05/14 06:11:52;;;;;;;5.90;5.40;;;;;;;13.21;96.48;95426.50;4998897;28;20814;-87
2023/05/14 06:14:19;;;;;;;6.63;6.03;;;;;;;13.22;97.46;95425.53;5015917;28;20483;-86
2023/05/14 06:16:47;;;;;;;7.13;6.53;;;;;;;13.32;98.10;95443.06;5016157;28;20449;-87
2023/05/14 06:19:14;;;;;;;7.57;6.00;;;;;;;13.39;98.87;95435.47;5015774;28;20442;-87
2023/05/14 06:21:40;;;;;;;7.27;6.33;;;;;;;13.48;98.96;95429.38;5015886;28;20495;-87
2023/05/14 06:24:08;;;;;;;11.57;7.00;;;;;;;13.52;98.51;95429.94;5015510;28;20449;-87
2023/05/14 06:26:34;;;;;;;7.43;6.83;;;;;;;13.56;98.32;95418.97;5015604;28;20941;-86
2023/05/14 06:29:01;;;;;;;8.10;6.57;;;;;;;13.53;97.40;95421.88;5015749;28;20442;-87
2023/05/14 06:31:28;;;;;;;10.60;7.80;;;;;;;13.57;98.11;95415.38;5016319;28;20449;-86
2023/05/14 06:33:56;;;;;;;6.77;6.17;;;;;;;13.54;98.02;95414.81;5016809;28;20478;-87
2023/05/14 06:36:23;;;;;;;7.90;6.10;;;;;;;13.66;98.51;95439.28;5018158;28;20439;-87
2023/05/14 06:38:50;;;;;;;11.40;7.13;;;;;;;13.72;98.35;95433.47;5016896;28;20443;-87
2023/05/14 06:41:17;;;;;;;8.00;7.20;;;;;;;13.81;98.41;95444.00;5016455;28;20913;-87
2023/05/14 06:43:44;;;;;;;6.50;5.90;;;;;;;13.89;99.08;95440.72;5016440;28;20956;-87
2023/05/14 06:46:10;;;;;;;9.23;7.47;;;;;;;13.89;98.83;95430.16;4998650;28;20450;-87
2023/05/14 06:48:37;;;;;;;8.17;6.60;;;;;;;13.91;97.88;95430.84;5015436;28;20451;-87
2023/05/14 06:51:05;;;;;;;11.37;7.27;;;;;;;13.93;97.27;95431.56;5016900;28;20453;-87
2023/05/14 06:57:01;;;;;;;10.83;8.73;;;;;;;13.98;97.79;95402.94;5016889;28;20401;-87
2023/05/14 06:59:28;;;;;;;9.90;7.97;;;;;;;13.77;96.88;95403.06;5016604;28;20461;-88
2023/05/14 07:01:55;;;;;;;8.67;7.77;;;;;;;13.79;96.96;95408.19;5017009;28;20468;-87
2023/05/14 07:04:22;;;;;;;13.47;9.50;;;;;;;13.81;97.35;95407.09;5016538;28;20566;-87
2023/05/14 07:06:50;;;;;;;7.27;6.60;;;;;;;13.76;97.64;95398.75;5016376;28;20450;-87
2023/05/14 07:09:17;;;;;;;7.70;7.00;;;;;;;13.81;96.97;95404.44;5016418;28;20453;-87
2023/05/14 07:11:44;;;;;;;7.90;7.00;;;;;;;13.80;97.22;95402.78;5018173;28;20430;-88
2023/05/14 07:14:11;;;;;;;11.02;7.65;;;;;;;13.64;97.51;95400.69;4999157;28;20446;-89
2023/05/14 07:16:37;;;;;;;9.00;7.60;;;;;;;13.71;98.32;95406.25;5016099;28;20215;-85
2023/05/14 07:19:04;;;;;;;11.80;9.77;;;;;;;13.69;98.37;95410.00;5016235;28;20444;-86
2023/05/14 07:21:31;;;;;;;13.63;9.70;;;;;;;13.52;98.27;95417.59;5017026;28;20441;-87
2023/05/14 07:23:59;;;;;;;8.97;7.53;;;;;;;13.51;100.00;95439.63;5016028;28;20532;-85
2023/05/14 07:33:10;;;;;;;12.40;11.03;;;;;;;13.16;100.00;95444.47;5015614;28;20484;-86
2023/05/14 07:35:36;;;;;;;20.27;12.53;;;;;;;13.11;100.00;95433.50;5015701;28;20433;-85
2023/05/14 07:38:05;;;;;;;10.53;8.80;;;;;;;13.12;100.00;95437.81;5015527;28;20438;-86
2023/05/14 07:40:33;;;;;;;19.73;11.47;;;;;;;13.15;100.00;95442.81;5015367;28;20556;-86
2023/05/14 07:43:00;;;;;;;16.63;11.00;;;;;;;13.07;100.00;95430.31;5015106;28;20454;-86
2023/05/14 07:48:48;;;;;;;9.60;7.33;;;;;;;12.58;100.00;95434.47;5014180;28;20432;-86
2023/05/14 07:51:15;;;;;;;12.30;8.10;;;;;;;12.45;100.00;95441.72;4981024;28;20452;-86
2023/05/14 07:53:41;;;;;;;12.07;7.90;;;;;;;12.49;100.00;95442.31;4997030;28;20516;-87
2023/05/14 07:56:10;;;;;;;23.37;8.80;;;;;;;12.42;100.00;95439.34;5015182;28;20468;-86
2023/05/14 07:58:36;;;;;;;9.63;7.77;;;;;;;12.29;100.00;95446.59;5014680;28;20463;-86
2023/05/14 08:01:05;;;;;;;11.27;8.37;;;;;;;12.35;100.00;95461.88;5014884;28;20450;-86
2023/05/14 08:03:32;;;;;;;7.90;7.13;;;;;;;12.60;100.00;95471.19;5015073;28;20564;-86
2023/05/14 08:05:59;;;;;;;10.43;7.13;;;;;;;12.52;100.00;95465.75;5017104;28;20494;-86
2023/05/14 08:08:26;;;;;;;13.20;6.60;;;;;;;12.59;100.00;95456.38;5016272;28;20449;-87
2023/05/14 08:10:53;;;;;;;15.33;8.70;;;;;;;12.58;100.00;95455.53;5017053;28;20449;-86
2023/05/14 08:13:21;;;;;;;9.23;8.23;;;;;;;12.45;100.00;95433.00;5018085;28;20894;-86
2023/05/14 08:15:48;;;;;;;10.03;7.67;;;;;;;12.41;100.00;95435.88;5018101;28;20440;-87
2023/05/14 08:18:14;;;;;;;13.67;9.97;;;;;;;12.62;100.00;95433.25;5018173;28;20456;-86
2023/05/14 08:20:41;;;;;;;14.17;9.40;;;;;;;12.80;100.00;95433.50;5014239;28;20438;-86
2023/05/14 08:23:08;;;;;;;15.80;9.90;;;;;;;12.89;100.00;95432.72;5014973;28;20450;-87
2023/05/14 08:25:35;;;;;;;10.53;9.43;;;;;;;12.99;100.00;95433.56;5014416;28;21171;-87
2023/05/14 08:28:02;;;;;;;9.20;8.40;;;;;;;13.10;100.00;95437.09;5014935;28;20448;-87
2023/05/14 08:30:30;;;;;;;9.07;8.17;;;;;;;12.77;100.00;95446.94;4996046;28;20462;-87
2023/05/14 08:32:58;;;;;;;11.03;7.67;;;;;;;12.85;100.00;95436.56;4985078;28;20454;-86
2023/05/14 08:35:25;;;;;;;9.10;8.20;;;;;;;12.89;100.00;95430.06;5013960;28;20943;-86
2023/05/14 08:37:55;;;;;;;7.80;7.03;;;;;;;12.88;100.00;95428.41;5014243;28;20829;-87
2023/05/14 08:40:22;;;;;;;10.00;7.80;;;;;;;13.03;100.00;95429.75;5014138;28;20432;-87
2023/05/14 08:42:51;;;;;;;9.93;6.57;;;;;;;12.93;100.00;95420.09;5014519;28;20546;-86
2023/05/14 08:45:19;;;;;;;10.30;6.37;;;;;;;12.82;100.00;95414.94;5014564;28;20936;-86
2023/05/14 08:47:50;;;;;;;8.43;7.57;;;;;;;13.01;100.00;95417.66;5014756;28;20452;-86
2023/05/14 08:50:19;;;;;;;7.53;6.80;;;;;;;12.65;100.00;95411.91;5004680;28;20465;-86
2023/05/14 08:52:46;;;;;;;7.20;6.57;;;;;;;12.65;100.00;95404.03;5014284;28;20469;-86
2023/05/14 08:55:13;;;;;;;7.03;5.73;;;;;;;12.69;100.00;95409.84;5014383;28;20521;-87
2023/05/14 09:04:25;;;;;;;7.10;5.93;;;;;;;12.79;100.00;95409.94;5013196;28;21014;-86
2023/05/14 09:06:53;;;;;;;8.97;5.93;;;;;;;12.68;100.00;95401.13;5014183;28;20445;-85
2023/05/14 09:09:21;;;;;;;7.20;6.27;;;;;;;12.78;100.00;95397.72;5013844;28;20451;-86
2023/05/14 09:11:49;;;;;;;7.37;6.67;;;;;;;12.65;100.00;95400.56;5013393;28;20447;-83
2023/05/14 09:14:16;;;;;;;9.00;8.10;;;;;;;12.73;100.00;95395.50;5012011;28;20506;-88
2023/05/14 09:16:45;;;;;;;9.30;7.13;;;;;;;12.84;100.00;95389.28;5013708;28;20200;-88
2023/05/14 09:19:13;;;;;;;7.77;7.00;;;;;;;12.87;100.00;95379.31;5013815;28;20531;-87
2023/05/14 09:21:42;;;;;;;11.37;8.27;;;;;;;13.16;100.00;95394.41;5014955;28;20438;-86
2023/05/14 09:24:09;;;;;;;9.00;7.63;;;;;;;13.34;100.00;95408.66;5016042;28;20460;-86
2023/05/14 09:26:38;;;;;;;8.07;7.30;;;;;;;13.43;100.00;95414.94;5020531;28;20863;-86
2023/05/14 09:29:06;;;;;;;8.73;5.50;;;;;;;13.47;100.00;95417.16;5013709;28;20850;-88
2023/05/14 09:31:49;;;;;;;7.23;6.50;;;;;;;13.32;100.00;95403.53;5018214;28;20450;-85
2023/05/14 09:34:24;;;;;;;10.23;6.00;;;;;;;13.20;100.00;95380.88;4997705;28;20569;-88
2023/05/14 09:36:55;;;;;;;7.03;6.43;;;;;;;13.09;100.00;95373.03;5015894;28;20508;-88
2023/05/14 09:39:23;;;;;;;6.67;6.00;;;;;;;13.26;100.00;95395.31;5020218;28;20469;-88
2023/05/14 09:41:50;;;;;;;6.60;6.00;;;;;;;13.14;100.00;95401.63;5016197;28;20528;-87
2023/05/14 09:44:17;;;;;;;6.97;6.27;;;;;;;13.30;100.00;95397.56;5015071;28;21028;-87
2023/05/14 09:46:44;;;;;;;6.10;5.60;;;;;;;13.31;100.00;95385.22;5015301;28;20443;-86
2023/05/14 09:49:11;;;;;;;5.60;5.17;;;;;;;13.30;100.00;95373.84;5021902;28;20431;-87
2023/05/14 09:51:47;;;;;;;6.67;6.07;;;;;;;13.11;100.00;95357.09;5034859;28;20868;-85
2023/05/14 09:54:15;;;;;;;6.00;5.20;;;;;;;13.05;100.00;95360.28;5015510;28;20481;-84
2023/05/14 09:56:44;;;;;;;7.47;6.03;;;;;;;12.90;100.00;95372.97;5017741;28;20449;-82
2023/05/14 09:59:10;;;;;;;6.70;6.03;;;;;;;13.03;100.00;95366.50;4980874;28;20502;-82
2023/05/14 10:01:38;;;;;;;5.90;5.40;;;;;;;12.92;100.00;95371.84;5016058;28;20522;-83
2023/05/14 10:04:08;;;;;;;5.83;5.43;;;;;;;13.09;100.00;95367.78;5015406;28;20481;-82
2023/05/14 10:06:37;;;;;;;8.90;5.63;;;;;;;13.14;100.00;95359.47;5017805;28;20452;-82
2023/05/14 10:09:06;;;;;;;6.17;5.63;;;;;;;13.10;100.00;95353.63;5018094;28;20442;-83
2023/05/14 10:11:37;;;;;;;6.57;6.00;;;;;;;13.06;100.00;95343.50;5017948;28;20460;-83
2023/05/14 10:14:08;;;;;;;10.77;5.97;;;;;;;12.92;100.00;95350.78;5014441;28;20469;-84
2023/05/14 10:16:41;;;;;;;8.43;5.73;;;;;;;13.09;100.00;95349.31;5020740;28;20458;-83
2023/05/14 10:19:09;;;;;;;7.10;6.50;;;;;;;13.09;100.00;95349.31;5022122;28;20846;-83
2023/05/14 10:21:38;;;;;;;7.00;6.30;;;;;;;13.24;100.00;95329.56;5020150;28;20449;-82
2023/05/14 10:24:06;;;;;;;7.30;5.40;;;;;;;13.32;100.00;95326.25;5019785;28;20873;-83
2023/05/14 10:26:39;;;;;;;7.00;6.40;;;;;;;13.32;100.00;95331.53;5016606;28;20461;-84
2023/05/14 10:29:06;;;;;;;7.27;6.57;;;;;;;13.36;100.00;95340.84;5017590;28;20442;-88
2023/05/14 10:31:47;;;;;;;12.93;7.10;;;;;;;13.30;100.00;95338.75;4997351;28;20445;-89
2023/05/14 10:37:35;;;;;;;6.90;6.30;;;;;;;13.34;100.00;95361.22;4996749;28;20941;-89
2023/05/14 10:40:04;;;;;;;9.73;7.00;;;;;;;13.16;100.00;95358.34;4997464;28;20504;-87
2023/05/14 10:42:34;;;;;;;6.80;5.77;;;;;;;12.78;100.00;95353.78;4997447;28;20453;-88
2023/05/14 10:45:06;;;;;;;7.67;6.80;;;;;;;12.36;100.00;95335.41;4996456;28;20444;-90
2023/05/14 10:47:33;;;;;;;9.97;8.17;;;;;;;12.49;100.00;95339.66;4998231;28;21158;-88
2023/05/14 10:50:03;;;;;;;6.20;5.37;;;;;;;12.28;100.00;95339.66;5016941;28;20467;-87
2023/05/14 10:52:32;;;;;;;11.27;8.50;;;;;;;12.39;100.00;95336.94;5017343;28;20453;-84
2023/05/14 10:55:01;;;;;;;9.93;7.03;;;;;;;12.36;100.00;95343.31;5018220;28;20484;-93
2023/05/14 10:57:29;;;;;;;10.50;7.93;;;;;;;12.21;100.00;95334.09;5016464;28;21019;-84
2023/05/14 10:59:59;;;;;;;8.20;6.70;;;;;;;12.15;100.00;95320.63;5017102;28;20451;-83
2023/05/14 11:02:28;;;;;;;18.10;8.90;;;;;;;12.21;100.00;95317.47;5017964;28;20436;-85
2023/05/14 11:04:58;;;;;;;7.80;7.03;;;;;;;12.19;100.00;95319.41;5017568;28;20439;-84
2023/05/14 11:07:28;;;;;;;6.73;6.13;;;;;;;12.25;100.00;95319.72;5016683;28;20527;-84
2023/05/14 11:10:01;;;;;;;7.17;6.50;;;;;;;12.30;100.00;95319.31;4996788;28;20441;-84
2023/05/14 11:12:28;;;;;;;9.07;8.10;;;;;;;12.47;100.00;95321.34;5010598;28;20480;-85
2023/05/14 11:14:59;;;;;;;5.87;5.27;;;;;;;12.51;100.00;95325.41;5015824;28;20522;-84
2023/05/14 11:17:26;;;;;;;6.17;5.67;;;;;;;12.45;100.00;95325.09;4998014;28;20436;-84
2023/05/14 11:19:54;;;;;;;13.37;7.90;;;;;;;12.35;100.00;95333.75;5015489;28;20930;-83
2023/05/14 11:22:21;;;;;;;9.63;8.70;;;;;;;12.61;100.00;95325.44;5014458;28;20430;-85
2023/05/14 11:24:48;;;;;;;13.00;10.40;;;;;;;12.63;100.00;95332.22;5015189;28;20455;-85
2023/05/14 11:27:15;;;;;;;13.30;10.97;;;;;;;12.84;100.00;95326.91;5014828;28;20965;-83
2023/05/14 11:29:45;;;;;;;14.07;9.40;;;;;;;12.96;100.00;95330.28;5015150;28;20488;-85
2023/05/14 11:32:14;;;;;;;8.97;8.17;;;;;;;13.09;100.00;95330.06;4979802;28;20546;-84
2023/05/14 11:34:43;;;;;;;8.23;7.43;;;;;;;13.06;100.00;95319.78;5012863;28;20479;-84
2023/05/14 11:37:12;;;;;;;10.60;8.90;;;;;;;13.10;100.00;95308.00;5013223;28;20508;-84
2023/05/14 11:39:39;;;;;;;9.50;8.60;;;;;;;13.29;100.00;95313.31;5012038;28;20472;-87
2023/05/14 11:42:13;;;;;;;10.53;9.60;;;;;;;13.36;100.00;95314.47;5000403;28;20794;-86
2023/05/14 11:44:43;;;;;;;16.70;10.60;;;;;;;13.29;100.00;95315.97;5013696;28;20453;-88
2023/05/14 11:47:10;;;;;;;10.40;9.37;;;;;;;13.38;100.00;95306.44;5013493;28;20430;-87
2023/05/14 11:49:38;;;;;;;9.67;8.67;;;;;;;13.24;100.00;95312.91;5012816;28;20446;-87
2023/05/14 11:52:07;;;;;;;8.73;7.60;;;;;;;13.28;100.00;95309.84;5013617;28;20445;-86
2023/05/14 11:54:34;;;;;;;12.23;7.97;;;;;;;13.41;100.00;95304.34;5012864;28;20489;-87
2023/05/14 11:57:09;;;;;;;10.00;7.83;;;;;;;13.19;100.00;95309.84;5013294;28;20451;-87
2023/05/14 11:59:36;;;;;;;7.83;7.23;;;;;;;13.37;100.00;95312.66;5013335;28;20453;-88
2023/05/14 12:02:04;;;;;;;9.10;8.20;;;;;;;13.50;100.00;95290.34;5013206;28;20894;-87
2023/05/14 12:04:32;;;;;;;10.67;5.70;;;;;;;13.57;100.00;95299.34;5012767;28;20540;-85
2023/05/14 12:07:07;;;;;;;10.10;7.10;;;;;;;13.64;100.00;95289.94;5013162;28;20448;-84
2023/05/14 12:09:36;;;;;;;6.40;5.73;;;;;;;13.70;100.00;95282.44;5013161;28;20437;-86
2023/05/14 12:12:08;;;;;;;6.93;6.23;;;;;;;13.63;100.00;95296.19;5013574;28;20493;-88
2023/05/14 12:14:37;;;;;;;6.77;6.10;;;;;;;13.81;100.00;95284.91;5013117;28;20557;-86
2023/05/14 12:17:11;;;;;;;5.63;5.17;;;;;;;13.82;100.00;95278.66;5013276;28;20437;-85
2023/05/14 12:19:40;;;;;;;7.37;6.43;;;;;;;14.01;100.00;95268.09;5012564;28;20500;-83
2023/05/14 12:22:09;;;;;;;6.33;5.83;;;;;;;13.88;100.00;95264.94;5012480;28;20537;-85
2023/05/14 12:24:36;;;;;;;7.50;6.37;;;;;;;13.59;100.00;95270.22;5012014;28;20865;-85